sensor_id;sensor_type;location;lat;lon;timestamp;P1;durP1;ratioP1;P2;durP2;ratioP2
28836;SDS011;50669;50.982;11.022;2023-03-24T00:00:09;3.17;;;2.78;;
28836;SDS011;50669;50.982;11.022;2023-03-24T00:02:38;3.88;;;3.30;;
28836;SDS011;50669;50.982;11.022;2023-03-24T00:05:11;3.30;;;2.80;;
28836;SDS011;50669;50.982;11.022;2023-03-24T00:07:40;3.10;;;2.70;;
28836;SDS011;50669;50.982;11.022;2023-03-24T00:10:07;3.75;;;3.00;;
28836;SDS011;50669;50.982;11.022;2023-03-24T00:12:37;3.08;;;2.78;;
28836;SDS011;50669;50.982;11.022;2023-03-24T00:15:09;3.72;;;3.03;;
28836;SDS011;50669;50.982;11.022;2023-03-24T00:17:37;3.10;;;2.78;;
28836;SDS011;50669;50.982;11.022;2023-03-24T00:20:08;3.40;;;2.97;;
28836;SDS011;50669;50.982;11.022;2023-03-24T00:22:44;3.25;;;2.95;;
28836;SDS011;50669;50.982;11.022;2023-03-24T00:25:15;3.60;;;3.10;;
28836;SDS011;50669;50.982;11.022;2023-03-24T00:27:42;3.10;;;2.80;;
28836;SDS011;50669;50.982;11.022;2023-03-24T00:30:13;3.38;;;3.05;;
28836;SDS011;50669;50.982;11.022;2023-03-24T00:32:42;3.40;;;2.92;;
28836;SDS011;50669;50.982;11.022;2023-03-24T00:35:13;3.10;;;2.80;;
28836;SDS011;50669;50.982;11.022;2023-03-24T00:37:43;3.45;;;3.15;;
28836;SDS011;50669;50.982;11.022;2023-03-24T00:40:11;3.80;;;3.28;;
28836;SDS011;50669;50.982;11.022;2023-03-24T00:42:40;3.45;;;3.00;;
28836;SDS011;50669;50.982;11.022;2023-03-24T00:45:09;3.42;;;3.00;;
28836;SDS011;50669;50.982;11.022;2023-03-24T00:47:37;3.83;;;3.33;;
28836;SDS011;50669;50.982;11.022;2023-03-24T00:50:04;3.45;;;3.10;;
28836;SDS011;50669;50.982;11.022;2023-03-24T00:52:31;3.65;;;3.00;;
28836;SDS011;50669;50.982;11.022;2023-03-24T00:55:09;4.55;;;3.25;;
28836;SDS011;50669;50.982;11.022;2023-03-24T00:57:42;3.08;;;2.78;;
28836;SDS011;50669;50.982;11.022;2023-03-24T01:00:15;3.63;;;3.00;;
28836;SDS011;50669;50.982;11.022;2023-03-24T01:02:50;3.28;;;2.97;;
28836;SDS011;50669;50.982;11.022;2023-03-24T01:05:22;3.72;;;3.42;;
28836;SDS011;50669;50.982;11.022;2023-03-24T01:07:49;4.95;;;3.42;;
28836;SDS011;50669;50.982;11.022;2023-03-24T01:10:20;3.10;;;2.80;;
28836;SDS011;50669;50.982;11.022;2023-03-24T01:12:50;3.50;;;3.17;;
28836;SDS011;50669;50.982;11.022;2023-03-24T01:15:18;4.22;;;3.15;;
28836;SDS011;50669;50.982;11.022;2023-03-24T01:17:48;3.60;;;3.25;;
28836;SDS011;50669;50.982;11.022;2023-03-24T01:20:20;3.25;;;2.95;;
28836;SDS011;50669;50.982;11.022;2023-03-24T01:22:47;3.47;;;3.00;;
28836;SDS011;50669;50.982;11.022;2023-03-24T01:25:16;3.30;;;2.92;;
28836;SDS011;50669;50.982;11.022;2023-03-24T01:27:47;3.50;;;3.15;;
28836;SDS011;50669;50.982;11.022;2023-03-24T01:30:15;3.53;;;2.97;;
28836;SDS011;50669;50.982;11.022;2023-03-24T01:32:42;4.53;;;3.10;;
28836;SDS011;50669;50.982;11.022;2023-03-24T01:35:08;3.72;;;3.15;;
28836;SDS011;50669;50.982;11.022;2023-03-24T01:37:35;4.00;;;3.30;;
28836;SDS011;50669;50.982;11.022;2023-03-24T01:40:01;4.00;;;2.88;;
28836;SDS011;50669;50.982;11.022;2023-03-24T01:42:32;4.13;;;3.28;;
28836;SDS011;50669;50.982;11.022;2023-03-24T01:44:59;3.40;;;3.05;;
28836;SDS011;50669;50.982;11.022;2023-03-24T01:47:45;3.50;;;3.00;;
28836;SDS011;50669;50.982;11.022;2023-03-24T01:50:15;3.85;;;3.25;;
28836;SDS011;50669;50.982;11.022;2023-03-24T01:52:42;3.80;;;3.40;;
28836;SDS011;50669;50.982;11.022;2023-03-24T01:55:10;3.47;;;3.08;;
28836;SDS011;50669;50.982;11.022;2023-03-24T01:57:44;3.75;;;3.20;;
28836;SDS011;50669;50.982;11.022;2023-03-24T02:00:13;3.72;;;3.10;;
28836;SDS011;50669;50.982;11.022;2023-03-24T02:02:41;4.07;;;3.40;;
28836;SDS011;50669;50.982;11.022;2023-03-24T02:05:13;4.00;;;3.60;;
28836;SDS011;50669;50.982;11.022;2023-03-24T02:07:52;3.22;;;2.78;;
28836;SDS011;50669;50.982;11.022;2023-03-24T02:10:31;3.80;;;2.95;;
28836;SDS011;50669;50.982;11.022;2023-03-24T02:13:01;3.33;;;2.88;;
28836;SDS011;50669;50.982;11.022;2023-03-24T02:15:30;3.95;;;3.42;;
28836;SDS011;50669;50.982;11.022;2023-03-24T02:18:18;3.97;;;3.40;;
28836;SDS011;50669;50.982;11.022;2023-03-24T02:26:43;3.28;;;2.97;;
28836;SDS011;50669;50.982;11.022;2023-03-24T02:29:51;3.97;;;3.30;;
28836;SDS011;50669;50.982;11.022;2023-03-24T02:43:15;3.63;;;3.08;;
28836;SDS011;50669;50.982;11.022;2023-03-24T02:53:59;3.50;;;3.10;;
28836;SDS011;50669;50.982;11.022;2023-03-24T02:59:19;3.25;;;2.88;;
28836;SDS011;50669;50.982;11.022;2023-03-24T03:01:53;3.75;;;3.03;;
28836;SDS011;50669;50.982;11.022;2023-03-24T03:04:29;3.42;;;2.95;;
28836;SDS011;50669;50.982;11.022;2023-03-24T03:07:02;3.47;;;3.10;;
28836;SDS011;50669;50.982;11.022;2023-03-24T03:09:33;3.08;;;2.78;;
28836;SDS011;50669;50.982;11.022;2023-03-24T03:12:07;3.78;;;3.13;;
28836;SDS011;50669;50.982;11.022;2023-03-24T03:14:50;3.13;;;2.83;;
28836;SDS011;50669;50.982;11.022;2023-03-24T03:17:25;3.83;;;3.42;;
28836;SDS011;50669;50.982;11.022;2023-03-24T03:20:06;3.25;;;2.88;;
28836;SDS011;50669;50.982;11.022;2023-03-24T03:22:43;4.18;;;3.20;;
28836;SDS011;50669;50.982;11.022;2023-03-24T03:25:17;2.75;;;2.55;;
28836;SDS011;50669;50.982;11.022;2023-03-24T03:27:48;3.13;;;2.65;;
28836;SDS011;50669;50.982;11.022;2023-03-24T03:30:20;4.05;;;3.30;;
28836;SDS011;50669;50.982;11.022;2023-03-24T03:32:56;3.78;;;3.03;;
28836;SDS011;50669;50.982;11.022;2023-03-24T03:38:41;3.70;;;3.30;;
28836;SDS011;50669;50.982;11.022;2023-03-24T03:41:11;4.35;;;3.22;;
28836;SDS011;50669;50.982;11.022;2023-03-24T03:43:42;3.72;;;3.30;;
28836;SDS011;50669;50.982;11.022;2023-03-24T03:46:10;3.75;;;2.88;;
28836;SDS011;50669;50.982;11.022;2023-03-24T03:48:36;3.67;;;2.85;;
28836;SDS011;50669;50.982;11.022;2023-03-24T03:51:04;3.08;;;2.65;;
28836;SDS011;50669;50.982;11.022;2023-03-24T03:53:42;3.95;;;3.50;;
28836;SDS011;50669;50.982;11.022;2023-03-24T03:56:14;3.40;;;3.00;;
28836;SDS011;50669;50.982;11.022;2023-03-24T03:58:43;3.50;;;2.92;;
28836;SDS011;50669;50.982;11.022;2023-03-24T04:01:11;3.50;;;2.85;;
28836;SDS011;50669;50.982;11.022;2023-03-24T04:03:49;3.00;;;2.70;;
28836;SDS011;50669;50.982;11.022;2023-03-24T04:06:21;4.07;;;2.80;;
28836;SDS011;50669;50.982;11.022;2023-03-24T04:09:03;3.78;;;3.40;;
28836;SDS011;50669;50.982;11.022;2023-03-24T04:20:19;3.28;;;2.92;;
28836;SDS011;50669;50.982;11.022;2023-03-24T04:23:26;3.42;;;2.85;;
28836;SDS011;50669;50.982;11.022;2023-03-24T04:26:13;3.67;;;3.38;;
28836;SDS011;50669;50.982;11.022;2023-03-24T04:31:49;2.88;;;2.58;;
28836;SDS011;50669;50.982;11.022;2023-03-24T04:34:27;3.17;;;2.88;;
28836;SDS011;50669;50.982;11.022;2023-03-24T04:37:03;2.90;;;2.63;;
28836;SDS011;50669;50.982;11.022;2023-03-24T04:39:37;3.50;;;3.08;;
28836;SDS011;50669;50.982;11.022;2023-03-24T04:42:07;3.63;;;3.22;;
28836;SDS011;50669;50.982;11.022;2023-03-24T04:44:36;3.55;;;2.78;;
28836;SDS011;50669;50.982;11.022;2023-03-24T04:47:05;2.90;;;2.60;;
28836;SDS011;50669;50.982;11.022;2023-03-24T04:49:37;3.63;;;2.88;;
28836;SDS011;50669;50.982;11.022;2023-03-24T04:52:04;3.42;;;3.08;;
28836;SDS011;50669;50.982;11.022;2023-03-24T04:54:31;3.40;;;2.70;;
28836;SDS011;50669;50.982;11.022;2023-03-24T04:56:58;3.03;;;2.72;;
28836;SDS011;50669;50.982;11.022;2023-03-24T04:59:26;2.90;;;2.58;;
28836;SDS011;50669;50.982;11.022;2023-03-24T05:01:55;3.50;;;3.13;;
28836;SDS011;50669;50.982;11.022;2023-03-24T05:04:22;3.55;;;2.85;;
28836;SDS011;50669;50.982;11.022;2023-03-24T05:06:49;2.80;;;2.50;;
28836;SDS011;50669;50.982;11.022;2023-03-24T05:09:15;2.58;;;2.33;;
28836;SDS011;50669;50.982;11.022;2023-03-24T05:11:42;3.15;;;2.85;;
28836;SDS011;50669;50.982;11.022;2023-03-24T05:14:11;3.70;;;2.95;;
28836;SDS011;50669;50.982;11.022;2023-03-24T05:16:37;2.92;;;2.63;;
28836;SDS011;50669;50.982;11.022;2023-03-24T05:19:05;3.08;;;2.78;;
28836;SDS011;50669;50.982;11.022;2023-03-24T05:21:31;3.20;;;2.90;;
28836;SDS011;50669;50.982;11.022;2023-03-24T05:23:58;3.33;;;2.90;;
28836;SDS011;50669;50.982;11.022;2023-03-24T05:26:26;2.92;;;2.63;;
28836;SDS011;50669;50.982;11.022;2023-03-24T05:28:52;3.53;;;2.92;;
28836;SDS011;50669;50.982;11.022;2023-03-24T05:31:17;3.42;;;3.00;;
28836;SDS011;50669;50.982;11.022;2023-03-24T05:33:45;3.30;;;2.75;;
28836;SDS011;50669;50.982;11.022;2023-03-24T05:36:13;3.30;;;2.85;;
28836;SDS011;50669;50.982;11.022;2023-03-24T05:38:40;3.17;;;2.75;;
28836;SDS011;50669;50.982;11.022;2023-03-24T05:41:06;3.75;;;2.65;;
28836;SDS011;50669;50.982;11.022;2023-03-24T05:43:31;2.95;;;2.65;;
28836;SDS011;50669;50.982;11.022;2023-03-24T05:45:57;3.35;;;2.97;;
28836;SDS011;50669;50.982;11.022;2023-03-24T05:48:26;3.22;;;2.92;;
28836;SDS011;50669;50.982;11.022;2023-03-24T05:50:56;3.70;;;3.28;;
28836;SDS011;50669;50.982;11.022;2023-03-24T05:53:22;3.45;;;3.03;;
28836;SDS011;50669;50.982;11.022;2023-03-24T05:55:48;3.10;;;2.80;;
28836;SDS011;50669;50.982;11.022;2023-03-24T05:58:13;3.13;;;2.80;;
28836;SDS011;50669;50.982;11.022;2023-03-24T06:00:41;3.05;;;2.70;;
28836;SDS011;50669;50.982;11.022;2023-03-24T06:03:07;3.10;;;2.80;;
28836;SDS011;50669;50.982;11.022;2023-03-24T06:05:35;2.92;;;2.55;;
28836;SDS011;50669;50.982;11.022;2023-03-24T06:08:03;3.17;;;2.88;;
28836;SDS011;50669;50.982;11.022;2023-03-24T06:13:00;3.05;;;2.75;;
28836;SDS011;50669;50.982;11.022;2023-03-24T06:15:26;2.83;;;2.53;;
28836;SDS011;50669;50.982;11.022;2023-03-24T06:17:58;3.03;;;2.58;;
28836;SDS011;50669;50.982;11.022;2023-03-24T06:20:25;3.58;;;2.70;;
28836;SDS011;50669;50.982;11.022;2023-03-24T06:22:54;2.85;;;2.42;;
28836;SDS011;50669;50.982;11.022;2023-03-24T06:25:23;2.47;;;2.22;;
28836;SDS011;50669;50.982;11.022;2023-03-24T06:27:51;2.80;;;2.60;;
28836;SDS011;50669;50.982;11.022;2023-03-24T06:30:19;3.15;;;2.55;;
28836;SDS011;50669;50.982;11.022;2023-03-24T06:32:45;2.63;;;2.42;;
28836;SDS011;50669;50.982;11.022;2023-03-24T06:35:14;3.05;;;2.60;;
28836;SDS011;50669;50.982;11.022;2023-03-24T06:37:41;3.00;;;2.38;;
28836;SDS011;50669;50.982;11.022;2023-03-24T06:40:07;2.72;;;2.40;;
28836;SDS011;50669;50.982;11.022;2023-03-24T06:42:36;2.70;;;2.50;;
28836;SDS011;50669;50.982;11.022;2023-03-24T06:45:02;3.35;;;2.90;;
28836;SDS011;50669;50.982;11.022;2023-03-24T06:47:30;2.83;;;2.53;;
28836;SDS011;50669;50.982;11.022;2023-03-24T06:49:58;3.08;;;2.78;;
28836;SDS011;50669;50.982;11.022;2023-03-24T06:52:24;3.22;;;2.92;;
28836;SDS011;50669;50.982;11.022;2023-03-24T06:54:54;3.38;;;2.90;;
28836;SDS011;50669;50.982;11.022;2023-03-24T06:57:23;2.65;;;2.33;;
28836;SDS011;50669;50.982;11.022;2023-03-24T06:59:51;2.90;;;2.60;;
28836;SDS011;50669;50.982;11.022;2023-03-24T07:02:17;3.03;;;2.72;;
28836;SDS011;50669;50.982;11.022;2023-03-24T07:04:42;2.80;;;2.20;;
28836;SDS011;50669;50.982;11.022;2023-03-24T07:07:12;2.65;;;2.33;;
28836;SDS011;50669;50.982;11.022;2023-03-24T07:09:38;2.95;;;2.65;;
28836;SDS011;50669;50.982;11.022;2023-03-24T07:12:04;3.28;;;2.90;;
28836;SDS011;50669;50.982;11.022;2023-03-24T07:14:30;3.25;;;2.63;;
28836;SDS011;50669;50.982;11.022;2023-03-24T07:16:58;2.80;;;2.28;;
28836;SDS011;50669;50.982;11.022;2023-03-24T07:19:26;2.60;;;2.40;;
28836;SDS011;50669;50.982;11.022;2023-03-24T07:21:54;2.50;;;2.13;;
28836;SDS011;50669;50.982;11.022;2023-03-24T07:24:20;2.53;;;2.33;;
28836;SDS011;50669;50.982;11.022;2023-03-24T07:26:45;3.05;;;2.60;;
28836;SDS011;50669;50.982;11.022;2023-03-24T07:29:11;2.75;;;2.47;;
28836;SDS011;50669;50.982;11.022;2023-03-24T07:31:37;2.90;;;2.60;;
28836;SDS011;50669;50.982;11.022;2023-03-24T07:34:06;2.50;;;2.30;;
28836;SDS011;50669;50.982;11.022;2023-03-24T07:36:32;2.95;;;2.63;;
28836;SDS011;50669;50.982;11.022;2023-03-24T07:38:58;2.80;;;2.50;;
28836;SDS011;50669;50.982;11.022;2023-03-24T07:41:23;2.95;;;2.65;;
28836;SDS011;50669;50.982;11.022;2023-03-24T07:43:51;2.97;;;2.58;;
28836;SDS011;50669;50.982;11.022;2023-03-24T07:46:22;3.70;;;2.50;;
28836;SDS011;50669;50.982;11.022;2023-03-24T07:48:50;3.08;;;2.67;;
28836;SDS011;50669;50.982;11.022;2023-03-24T07:51:16;2.80;;;2.33;;
28836;SDS011;50669;50.982;11.022;2023-03-24T07:53:43;3.35;;;2.83;;
28836;SDS011;50669;50.982;11.022;2023-03-24T07:56:11;3.05;;;2.60;;
28836;SDS011;50669;50.982;11.022;2023-03-24T07:58:40;2.97;;;2.53;;
28836;SDS011;50669;50.982;11.022;2023-03-24T08:01:06;2.55;;;2.35;;
28836;SDS011;50669;50.982;11.022;2023-03-24T08:03:34;2.97;;;2.67;;
28836;SDS011;50669;50.982;11.022;2023-03-24T08:06:00;2.42;;;2.22;;
28836;SDS011;50669;50.982;11.022;2023-03-24T08:08:26;2.67;;;2.22;;
28836;SDS011;50669;50.982;11.022;2023-03-24T08:10:57;2.95;;;2.50;;
28836;SDS011;50669;50.982;11.022;2023-03-24T08:13:23;3.38;;;2.80;;
28836;SDS011;50669;50.982;11.022;2023-03-24T08:15:49;2.55;;;2.35;;
28836;SDS011;50669;50.982;11.022;2023-03-24T08:18:19;2.78;;;2.45;;
28836;SDS011;50669;50.982;11.022;2023-03-24T08:20:47;3.13;;;2.65;;
28836;SDS011;50669;50.982;11.022;2023-03-24T08:23:15;2.92;;;2.40;;
28836;SDS011;50669;50.982;11.022;2023-03-24T08:25:44;2.72;;;2.50;;
28836;SDS011;50669;50.982;11.022;2023-03-24T08:28:12;2.60;;;2.17;;
28836;SDS011;50669;50.982;11.022;2023-03-24T08:30:40;2.92;;;2.63;;
28836;SDS011;50669;50.982;11.022;2023-03-24T08:33:09;2.60;;;2.40;;
28836;SDS011;50669;50.982;11.022;2023-03-24T08:35:36;2.63;;;2.35;;
28836;SDS011;50669;50.982;11.022;2023-03-24T08:38:02;2.83;;;2.53;;
28836;SDS011;50669;50.982;11.022;2023-03-24T08:40:28;2.65;;;2.45;;
28836;SDS011;50669;50.982;11.022;2023-03-24T08:42:57;3.00;;;2.70;;
28836;SDS011;50669;50.982;11.022;2023-03-24T08:45:28;2.63;;;2.42;;
28836;SDS011;50669;50.982;11.022;2023-03-24T08:47:58;2.80;;;2.50;;
28836;SDS011;50669;50.982;11.022;2023-03-24T08:50:28;3.38;;;2.60;;
28836;SDS011;50669;50.982;11.022;2023-03-24T08:52:56;2.33;;;2.13;;
28836;SDS011;50669;50.982;11.022;2023-03-24T08:55:23;2.47;;;2.15;;
28836;SDS011;50669;50.982;11.022;2023-03-24T08:57:49;2.13;;;1.92;;
28836;SDS011;50669;50.982;11.022;2023-03-24T09:00:18;2.63;;;2.28;;
28836;SDS011;50669;50.982;11.022;2023-03-24T09:02:48;2.60;;;2.40;;
28836;SDS011;50669;50.982;11.022;2023-03-24T09:05:15;2.55;;;2.20;;
28836;SDS011;50669;50.982;11.022;2023-03-24T09:07:43;2.55;;;2.35;;
28836;SDS011;50669;50.982;11.022;2023-03-24T09:10:13;2.40;;;2.20;;
28836;SDS011;50669;50.982;11.022;2023-03-24T09:12:39;2.85;;;2.58;;
28836;SDS011;50669;50.982;11.022;2023-03-24T09:15:08;2.35;;;2.15;;
28836;SDS011;50669;50.982;11.022;2023-03-24T09:17:39;2.45;;;2.25;;
28836;SDS011;50669;50.982;11.022;2023-03-24T09:20:06;2.40;;;2.20;;
28836;SDS011;50669;50.982;11.022;2023-03-24T09:22:41;2.80;;;2.30;;
28836;SDS011;50669;50.982;11.022;2023-03-24T09:25:11;2.55;;;2.30;;
28836;SDS011;50669;50.982;11.022;2023-03-24T09:27:43;3.10;;;2.40;;
28836;SDS011;50669;50.982;11.022;2023-03-24T09:30:10;3.42;;;2.67;;
28836;SDS011;50669;50.982;11.022;2023-03-24T09:32:40;2.35;;;2.13;;
28836;SDS011;50669;50.982;11.022;2023-03-24T09:35:08;2.60;;;2.30;;
28836;SDS011;50669;50.982;11.022;2023-03-24T09:37:35;2.67;;;2.40;;
28836;SDS011;50669;50.982;11.022;2023-03-24T09:40:02;2.17;;;1.98;;
28836;SDS011;50669;50.982;11.022;2023-03-24T09:42:33;2.30;;;2.10;;
28836;SDS011;50669;50.982;11.022;2023-03-24T09:45:14;2.78;;;2.47;;
28836;SDS011;50669;50.982;11.022;2023-03-24T09:47:47;2.25;;;2.00;;
28836;SDS011;50669;50.982;11.022;2023-03-24T09:50:21;2.13;;;1.80;;
28836;SDS011;50669;50.982;11.022;2023-03-24T09:52:54;2.40;;;2.20;;
28836;SDS011;50669;50.982;11.022;2023-03-24T09:55:28;2.05;;;1.80;;
28836;SDS011;50669;50.982;11.022;2023-03-24T09:57:57;2.58;;;2.38;;
28836;SDS011;50669;50.982;11.022;2023-03-24T10:00:31;2.08;;;1.88;;
28836;SDS011;50669;50.982;11.022;2023-03-24T10:03:01;2.53;;;2.33;;
28836;SDS011;50669;50.982;11.022;2023-03-24T10:05:42;2.50;;;2.15;;
28836;SDS011;50669;50.982;11.022;2023-03-24T10:10:48;2.63;;;2.40;;
28836;SDS011;50669;50.982;11.022;2023-03-24T10:19:22;1.88;;;1.77;;
28836;SDS011;50669;50.982;11.022;2023-03-24T10:24:41;2.47;;;2.00;;
28836;SDS011;50669;50.982;11.022;2023-03-24T10:29:53;3.13;;;2.10;;
28836;SDS011;50669;50.982;11.022;2023-03-24T10:32:25;2.20;;;1.88;;
28836;SDS011;50669;50.982;11.022;2023-03-24T10:34:56;2.30;;;2.08;;
28836;SDS011;50669;50.982;11.022;2023-03-24T10:37:31;2.38;;;2.17;;
28836;SDS011;50669;50.982;11.022;2023-03-24T10:39:58;2.60;;;2.05;;
28836;SDS011;50669;50.982;11.022;2023-03-24T10:42:32;2.60;;;2.30;;
28836;SDS011;50669;50.982;11.022;2023-03-24T10:44:59;2.20;;;2.00;;
28836;SDS011;50669;50.982;11.022;2023-03-24T10:47:27;2.38;;;2.17;;
28836;SDS011;50669;50.982;11.022;2023-03-24T10:50:03;2.47;;;2.10;;
28836;SDS011;50669;50.982;11.022;2023-03-24T10:52:41;2.40;;;2.17;;
28836;SDS011;50669;50.982;11.022;2023-03-24T10:55:14;2.33;;;2.13;;
28836;SDS011;50669;50.982;11.022;2023-03-24T10:57:45;2.38;;;2.17;;
28836;SDS011;50669;50.982;11.022;2023-03-24T11:00:15;2.60;;;2.20;;
28836;SDS011;50669;50.982;11.022;2023-03-24T11:03:11;2.10;;;1.90;;
28836;SDS011;50669;50.982;11.022;2023-03-24T11:05:47;2.33;;;2.13;;
28836;SDS011;50669;50.982;11.022;2023-03-24T11:13:18;2.63;;;2.25;;
28836;SDS011;50669;50.982;11.022;2023-03-24T11:18:31;2.35;;;2.00;;
28836;SDS011;50669;50.982;11.022;2023-03-24T11:21:00;2.22;;;2.03;;
28836;SDS011;50669;50.982;11.022;2023-03-24T11:23:37;2.22;;;2.00;;
28836;SDS011;50669;50.982;11.022;2023-03-24T11:26:10;2.40;;;2.00;;
28836;SDS011;50669;50.982;11.022;2023-03-24T11:28:52;2.60;;;2.05;;
28836;SDS011;50669;50.982;11.022;2023-03-24T11:31:22;2.45;;;1.95;;
28836;SDS011;50669;50.982;11.022;2023-03-24T11:41:36;2.45;;;2.08;;
28836;SDS011;50669;50.982;11.022;2023-03-24T11:46:49;2.55;;;2.35;;
28836;SDS011;50669;50.982;11.022;2023-03-24T11:49:18;2.33;;;2.08;;
28836;SDS011;50669;50.982;11.022;2023-03-24T11:51:51;2.53;;;2.22;;
28836;SDS011;50669;50.982;11.022;2023-03-24T11:54:22;2.50;;;2.10;;
28836;SDS011;50669;50.982;11.022;2023-03-24T11:56:53;2.75;;;2.20;;
28836;SDS011;50669;50.982;11.022;2023-03-24T12:02:31;2.63;;;1.95;;
28836;SDS011;50669;50.982;11.022;2023-03-24T12:10:04;2.40;;;2.20;;
28836;SDS011;50669;50.982;11.022;2023-03-24T12:18:04;2.40;;;2.20;;
28836;SDS011;50669;50.982;11.022;2023-03-24T12:26:13;2.10;;;1.90;;
28836;SDS011;50669;50.982;11.022;2023-03-24T12:39:14;2.30;;;2.10;;
28836;SDS011;50669;50.982;11.022;2023-03-24T12:42:03;2.67;;;2.10;;
28836;SDS011;50669;50.982;11.022;2023-03-24T12:44:41;2.42;;;2.22;;
28836;SDS011;50669;50.982;11.022;2023-03-24T12:55:20;2.30;;;2.10;;
28836;SDS011;50669;50.982;11.022;2023-03-24T12:58:01;2.08;;;1.88;;
28836;SDS011;50669;50.982;11.022;2023-03-24T13:06:46;2.50;;;2.10;;
28836;SDS011;50669;50.982;11.022;2023-03-24T13:09:24;2.30;;;2.03;;
28836;SDS011;50669;50.982;11.022;2023-03-24T13:11:59;2.53;;;2.28;;
28836;SDS011;50669;50.982;11.022;2023-03-24T13:14:32;2.67;;;2.03;;
28836;SDS011;50669;50.982;11.022;2023-03-24T13:17:16;2.00;;;1.80;;
28836;SDS011;50669;50.982;11.022;2023-03-24T13:19:50;2.05;;;1.85;;
28836;SDS011;50669;50.982;11.022;2023-03-24T13:22:17;2.70;;;2.00;;
28836;SDS011;50669;50.982;11.022;2023-03-24T13:24:45;2.20;;;2.00;;
28836;SDS011;50669;50.982;11.022;2023-03-24T13:32:54;3.13;;;2.20;;
28836;SDS011;50669;50.982;11.022;2023-03-24T13:38:15;2.20;;;2.00;;
28836;SDS011;50669;50.982;11.022;2023-03-24T13:40:57;2.47;;;1.85;;
28836;SDS011;50669;50.982;11.022;2023-03-24T13:43:24;2.40;;;2.20;;
28836;SDS011;50669;50.982;11.022;2023-03-24T13:45:59;2.25;;;2.05;;
28836;SDS011;50669;50.982;11.022;2023-03-24T13:56:27;2.00;;;1.80;;
28836;SDS011;50669;50.982;11.022;2023-03-24T14:02:18;2.42;;;2.13;;
28836;SDS011;50669;50.982;11.022;2023-03-24T14:24:08;2.17;;;1.80;;
28836;SDS011;50669;50.982;11.022;2023-03-24T14:28:59;2.03;;;1.83;;
28836;SDS011;50669;50.982;11.022;2023-03-24T14:31:26;2.35;;;2.10;;
28836;SDS011;50669;50.982;11.022;2023-03-24T14:34:12;2.90;;;2.45;;
28836;SDS011;50669;50.982;11.022;2023-03-24T14:36:44;2.43;;;2.23;;
28836;SDS011;50669;50.982;11.022;2023-03-24T14:41:55;2.15;;;1.95;;
28836;SDS011;50669;50.982;11.022;2023-03-24T14:47:20;2.40;;;2.10;;
28836;SDS011;50669;50.982;11.022;2023-03-24T14:49:50;2.20;;;1.88;;
28836;SDS011;50669;50.982;11.022;2023-03-24T14:54:55;2.20;;;1.98;;
28836;SDS011;50669;50.982;11.022;2023-03-24T14:57:26;2.70;;;2.30;;
28836;SDS011;50669;50.982;11.022;2023-03-24T15:00:01;2.55;;;2.00;;
28836;SDS011;50669;50.982;11.022;2023-03-24T15:07:39;2.10;;;1.90;;
28836;SDS011;50669;50.982;11.022;2023-03-24T15:10:06;2.55;;;2.03;;
28836;SDS011;50669;50.982;11.022;2023-03-24T15:12:40;2.40;;;2.20;;
28836;SDS011;50669;50.982;11.022;2023-03-24T15:15:17;2.88;;;2.30;;
28836;SDS011;50669;50.982;11.022;2023-03-24T15:17:46;2.83;;;2.33;;
28836;SDS011;50669;50.982;11.022;2023-03-24T15:20:22;2.83;;;2.33;;
28836;SDS011;50669;50.982;11.022;2023-03-24T15:22:52;2.50;;;2.00;;
28836;SDS011;50669;50.982;11.022;2023-03-24T15:25:27;2.10;;;1.90;;
28836;SDS011;50669;50.982;11.022;2023-03-24T15:27:55;2.60;;;2.20;;
28836;SDS011;50669;50.982;11.022;2023-03-24T15:30:27;3.13;;;2.50;;
28836;SDS011;50669;50.982;11.022;2023-03-24T15:32:55;2.92;;;2.30;;
28836;SDS011;50669;50.982;11.022;2023-03-24T15:35:21;2.22;;;1.95;;
28836;SDS011;50669;50.982;11.022;2023-03-24T15:37:52;2.35;;;1.90;;
28836;SDS011;50669;50.982;11.022;2023-03-24T15:42:55;2.28;;;2.03;;
28836;SDS011;50669;50.982;11.022;2023-03-24T15:45:27;2.50;;;2.28;;
28836;SDS011;50669;50.982;11.022;2023-03-24T15:47:56;2.33;;;2.13;;
28836;SDS011;50669;50.982;11.022;2023-03-24T15:51:09;2.70;;;1.90;;
28836;SDS011;50669;50.982;11.022;2023-03-24T15:53:25;2.33;;;2.13;;
28836;SDS011;50669;50.982;11.022;2023-03-24T15:56:29;2.25;;;2.05;;
28836;SDS011;50669;50.982;11.022;2023-03-24T15:59:06;2.58;;;2.15;;
28836;SDS011;50669;50.982;11.022;2023-03-24T16:01:35;2.38;;;2.00;;
28836;SDS011;50669;50.982;11.022;2023-03-24T16:04:05;2.00;;;1.80;;
28836;SDS011;50669;50.982;11.022;2023-03-24T16:06:39;2.70;;;2.20;;
28836;SDS011;50669;50.982;11.022;2023-03-24T16:09:13;2.20;;;2.00;;
28836;SDS011;50669;50.982;11.022;2023-03-24T16:11:40;3.03;;;2.42;;
28836;SDS011;50669;50.982;11.022;2023-03-24T16:16:46;2.50;;;2.13;;
28836;SDS011;50669;50.982;11.022;2023-03-24T16:19:12;2.90;;;2.60;;
28836;SDS011;50669;50.982;11.022;2023-03-24T16:21:37;2.35;;;2.05;;
28836;SDS011;50669;50.982;11.022;2023-03-24T16:24:03;2.30;;;2.10;;
28836;SDS011;50669;50.982;11.022;2023-03-24T16:26:30;2.83;;;2.22;;
28836;SDS011;50669;50.982;11.022;2023-03-24T16:29:07;2.80;;;2.47;;
28836;SDS011;50669;50.982;11.022;2023-03-24T16:31:38;2.42;;;2.05;;
28836;SDS011;50669;50.982;11.022;2023-03-24T16:34:03;2.55;;;2.10;;
28836;SDS011;50669;50.982;11.022;2023-03-24T16:36:29;3.42;;;2.70;;
28836;SDS011;50669;50.982;11.022;2023-03-24T16:39:00;2.65;;;2.20;;
28836;SDS011;50669;50.982;11.022;2023-03-24T16:41:26;3.30;;;2.55;;
28836;SDS011;50669;50.982;11.022;2023-03-24T16:43:54;2.13;;;1.92;;
28836;SDS011;50669;50.982;11.022;2023-03-24T16:46:30;2.83;;;2.40;;
28836;SDS011;50669;50.982;11.022;2023-03-24T16:48:57;2.33;;;2.10;;
28836;SDS011;50669;50.982;11.022;2023-03-24T16:51:24;2.40;;;1.95;;
28836;SDS011;50669;50.982;11.022;2023-03-24T16:53:51;2.05;;;1.77;;
28836;SDS011;50669;50.982;11.022;2023-03-24T16:56:18;2.53;;;2.28;;
28836;SDS011;50669;50.982;11.022;2023-03-24T16:58:46;2.08;;;1.88;;
28836;SDS011;50669;50.982;11.022;2023-03-24T17:03:58;3.25;;;2.28;;
28836;SDS011;50669;50.982;11.022;2023-03-24T17:06:26;2.20;;;2.00;;
28836;SDS011;50669;50.982;11.022;2023-03-24T17:08:55;2.72;;;2.15;;
28836;SDS011;50669;50.982;11.022;2023-03-24T17:11:28;2.58;;;1.98;;
28836;SDS011;50669;50.982;11.022;2023-03-24T17:13:58;2.28;;;1.90;;
28836;SDS011;50669;50.982;11.022;2023-03-24T17:16:30;2.45;;;2.10;;
28836;SDS011;50669;50.982;11.022;2023-03-24T17:18:57;2.30;;;2.10;;
28836;SDS011;50669;50.982;11.022;2023-03-24T17:21:25;2.22;;;2.03;;
28836;SDS011;50669;50.982;11.022;2023-03-24T17:23:53;2.40;;;2.20;;
28836;SDS011;50669;50.982;11.022;2023-03-24T17:26:21;2.58;;;2.28;;
28836;SDS011;50669;50.982;11.022;2023-03-24T17:28:49;2.63;;;2.03;;
28836;SDS011;50669;50.982;11.022;2023-03-24T17:31:15;2.55;;;2.17;;
28836;SDS011;50669;50.982;11.022;2023-03-24T17:33:41;2.38;;;2.08;;
28836;SDS011;50669;50.982;11.022;2023-03-24T17:36:11;2.75;;;2.53;;
28836;SDS011;50669;50.982;11.022;2023-03-24T17:38:41;2.42;;;2.22;;
28836;SDS011;50669;50.982;11.022;2023-03-24T17:41:11;2.50;;;2.30;;
28836;SDS011;50669;50.982;11.022;2023-03-24T17:43:37;3.22;;;2.30;;
28836;SDS011;50669;50.982;11.022;2023-03-24T17:46:02;2.92;;;2.22;;
28836;SDS011;50669;50.982;11.022;2023-03-24T17:48:28;2.33;;;1.98;;
28836;SDS011;50669;50.982;11.022;2023-03-24T17:51:01;2.08;;;1.88;;
28836;SDS011;50669;50.982;11.022;2023-03-24T17:53:26;2.85;;;2.20;;
28836;SDS011;50669;50.982;11.022;2023-03-24T17:55:55;2.50;;;2.30;;